Time;durP1;ratioP1;P1;durP2;ratioP2;P2;SDS_P1;SDS_P2;PMS_P1;PMS_P2;Temp;Humidity;BMP_temperature;BMP_pressure;BME280_temperature;BME280_humidity;BME280_pressure;Samples;Min_cycle;Max_cycle;Signal;HPM_P1;HPM_P2
2023/05/07 00:02:37;;;;;;;0.55;0.30;;;22.90;65.50;;;;;;6190498;28;20070;-58
2023/05/07 00:05:39;;;;;;;0.30;0.30;;;22.90;65.50;;;;;;6190289;28;20043;-58
2023/05/07 00:08:41;;;;;;;0.57;0.30;;;22.30;65.20;;;;;;6191204;28;20074;-58
2023/05/07 00:11:42;;;;;;;0.38;0.30;;;22.90;65.40;;;;;;6191139;28;20533;-58
2023/05/07 00:14:45;;;;;;;0.88;0.60;;;22.80;65.60;;;;;;6194885;28;20058;-58
2023/05/07 00:17:49;;;;;;;0.32;0.32;;;22.70;65.40;;;;;;6195395;28;20096;-58
2023/05/07 00:20:53;;;;;;;0.20;0.20;;;22.80;65.50;;;;;;6195652;28;20099;-58
2023/05/07 00:23:54;;;;;;;0.65;0.50;;;22.80;65.50;;;;;;6195540;28;20042;-58
2023/05/07 00:26:57;;;;;;;0.50;0.40;;;22.90;65.60;;;;;;6195374;28;20035;-58
2023/05/07 00:29:59;;;;;;;0.68;0.43;;;22.30;65.10;;;;;;6195319;28;20030;-58
2023/05/07 00:33:01;;;;;;;0.52;0.43;;;22.80;65.40;;;;;;6195425;28;20096;-58
2023/05/07 00:36:03;;;;;;;0.52;0.30;;;22.70;65.50;;;;;;6195294;28;20041;-58
2023/05/07 00:39:04;;;;;;;0.75;0.40;;;22.90;65.50;;;;;;6193922;28;20078;-58
2023/05/07 00:42:06;;;;;;;0.63;0.30;;;22.90;65.50;;;;;;6195571;28;20456;-58
2023/05/07 00:45:10;;;;;;;1.05;0.60;;;22.70;65.60;;;;;;6195417;28;20042;-58
2023/05/07 00:48:12;;;;;;;0.45;0.40;;;22.90;65.40;;;;;;6195116;28;20038;-58
2023/05/07 00:51:14;;;;;;;0.45;0.40;;;22.70;65.40;;;;;;6195058;28;20035;-58
2023/05/07 00:54:15;;;;;;;0.60;0.40;;;22.30;65.90;;;;;;6194820;28;20041;-58
2023/05/07 00:57:17;;;;;;;0.40;0.20;;;22.80;65.60;;;;;;6194745;28;20615;-58
2023/05/07 01:00:19;;;;;;;0.30;0.30;;;22.70;65.60;;;;;;6193791;28;20050;-58
2023/05/07 01:03:21;;;;;;;0.73;0.50;;;22.80;65.40;;;;;;6194251;28;20046;-58
2023/05/07 01:06:25;;;;;;;0.45;0.30;;;22.70;65.50;;;;;;6194919;28;20648;-57
2023/05/07 01:09:29;;;;;;;0.82;0.35;;;22.40;65.10;;;;;;6193383;28;20061;-56
2023/05/07 01:12:31;;;;;;;1.00;0.40;;;22.70;65.20;;;;;;6194651;28;20062;-56
2023/05/07 01:15:34;;;;;;;0.80;0.65;;;22.70;65.30;;;;;;6194427;28;20694;-56
2023/05/07 01:18:35;;;;;;;0.77;0.50;;;22.30;65.30;;;;;;6194299;28;20041;-56
2023/05/07 01:21:41;;;;;;;0.40;0.30;;;22.80;65.50;;;;;;6207987;23;20070;-60
2023/05/07 01:24:44;;;;;;;0.40;0.30;;;22.80;63.60;;;;;;6191465;28;20030;-60
2023/05/07 01:27:46;;;;;;;0.63;0.40;;;22.80;65.50;;;;;;6193735;28;20414;-60
2023/05/07 01:30:56;;;;;;;0.50;0.50;;;22.70;65.50;;;;;;6194290;28;20042;-61
2023/05/07 01:34:00;;;;;;;0.52;0.40;;;22.80;65.40;;;;;;6192612;28;20050;-61
2023/05/07 01:37:02;;;;;;;0.63;0.40;;;22.80;65.20;;;;;;6191316;28;20050;-60
2023/05/07 01:40:07;;;;;;;1.33;0.50;;;22.70;65.30;;;;;;6194048;28;20780;-60
2023/05/07 01:43:09;;;;;;;0.75;0.40;;;22.70;65.00;;;;;;6191501;28;20043;-60
2023/05/07 01:46:13;;;;;;;0.85;0.50;;;22.70;65.20;;;;;;6189234;28;20082;-60
2023/05/07 01:49:16;;;;;;;0.75;0.40;;;22.30;64.50;;;;;;6192620;28;20038;-60
2023/05/07 01:52:18;;;;;;;0.70;0.40;;;22.30;65.00;;;;;;6194006;28;20030;-60
2023/05/07 01:55:20;;;;;;;0.40;0.40;;;22.80;65.40;;;;;;6194335;28;20093;-60
2023/05/07 01:58:23;;;;;;;0.30;0.30;;;22.70;65.20;;;;;;6164088;28;20513;-60
2023/05/07 02:01:25;;;;;;;0.68;0.40;;;22.60;65.20;;;;;;6169437;28;20410;-60
2023/05/07 02:04:27;;;;;;;0.50;0.40;;;22.70;65.20;;;;;;6169704;28;20050;-61
2023/05/07 02:07:28;;;;;;;0.70;0.50;;;22.70;65.20;;;;;;6169602;28;20042;-61
2023/05/07 02:10:31;;;;;;;0.60;0.60;;;22.60;65.00;;;;;;6169303;28;20050;-61
2023/05/07 02:13:34;;;;;;;0.40;0.38;;;22.60;65.00;;;;;;6168637;28;20049;-61
2023/05/07 02:16:36;;;;;;;0.38;0.30;;;22.70;65.10;;;;;;6168749;28;20035;-61
2023/05/07 02:19:37;;;;;;;0.50;0.30;;;22.60;64.90;;;;;;6169063;28;20410;-61
2023/05/07 02:22:39;;;;;;;;;;;22.60;65.10;;;;;;6169737;28;20035;-61
2023/05/07 02:25:41;;;;;;;0.40;0.30;;;22.60;65.30;;;;;;6168458;28;19922;-60
2023/05/07 02:28:43;;;;;;;0.40;0.20;;;22.60;65.00;;;;;;6169548;28;20035;-61
2023/05/07 02:31:45;;;;;;;0.70;0.50;;;22.60;65.20;;;;;;6168353;28;20423;-60
2023/05/07 02:34:46;;;;;;;0.40;0.30;;;22.50;65.10;;;;;;6168367;28;20647;-61
2023/05/07 02:37:49;;;;;;;0.35;0.32;;;22.60;65.10;;;;;;6168465;28;20049;-61
2023/05/07 02:40:51;;;;;;;0.35;0.30;;;22.60;65.00;;;;;;6168750;28;20178;-62
2023/05/07 02:43:53;;;;;;;0.80;0.40;;;22.60;64.90;;;;;;6168894;28;20047;-61
2023/05/07 02:46:54;;;;;;;0.47;0.40;;;22.60;65.10;;;;;;6169404;28;20035;-61
2023/05/07 02:49:57;;;;;;;0.88;0.57;;;22.60;65.10;;;;;;6168338;28;20617;-61
2023/05/07 02:52:58;;;;;;;0.47;0.45;;;22.10;64.90;;;;;;6166315;28;20042;-61
2023/05/07 02:56:01;;;;;;;0.57;0.40;;;22.60;65.20;;;;;;6165584;28;20070;-61
2023/05/07 02:59:05;;;;;;;0.82;0.60;;;22.30;64.90;;;;;;6165873;28;20501;-61
2023/05/07 03:02:12;;;;;;;0.40;0.40;;;22.50;62.30;;;;;;6165568;28;20101;-61
2023/05/07 03:05:14;;;;;;;0.50;0.40;;;22.50;65.30;;;;;;6167182;28;20043;-61
2023/05/07 03:08:15;;;;;;;0.40;0.30;;;22.40;65.20;;;;;;6167315;28;20042;-61
2023/05/07 03:11:17;;;;;;;0.50;0.30;;;22.60;65.60;;;;;;6167547;28;20031;-61
2023/05/07 03:14:20;;;;;;;0.75;0.30;;;21.70;93.70;;;;;;6168686;28;20038;-61
2023/05/07 03:17:22;;;;;;;0.52;0.32;;;22.50;67.10;;;;;;6168708;28;20125;-61
2023/05/07 03:20:26;;;;;;;0.45;0.40;;;22.50;66.50;;;;;;6167296;28;20039;-61
2023/05/07 03:23:29;;;;;;;0.57;0.40;;;22.00;65.70;;;;;;6168709;28;20035;-61
2023/05/07 03:26:33;;;;;;;0.60;0.47;;;22.60;66.50;;;;;;6168327;28;20573;-61
2023/05/07 03:29:35;;;;;;;0.70;0.40;;;22.20;65.60;;;;;;6168185;28;20086;-61
2023/05/07 03:32:36;;;;;;;;;;;22.40;65.50;;;;;;6168806;28;20070;-61
2023/05/07 03:35:42;;;;;;;0.90;0.22;;;22.40;66.00;;;;;;6168780;28;20008;-61
2023/05/07 03:38:44;;;;;;;0.43;0.38;;;22.40;65.80;;;;;;6168551;28;20045;-61
2023/05/07 03:41:47;;;;;;;0.52;0.25;;;22.50;65.50;;;;;;6168195;28;20046;-61
2023/05/07 03:44:49;;;;;;;0.43;0.43;;;22.50;65.10;;;;;;6167674;28;20117;-61
2023/05/07 03:47:50;;;;;;;0.30;0.30;;;22.50;65.40;;;;;;6167738;28;20042;-61
2023/05/07 03:50:56;;;;;;;0.63;0.47;;;22.50;65.20;;;;;;6167919;28;20065;-61
2023/05/07 03:53:58;;;;;;;0.30;0.30;;;22.50;65.30;;;;;;6167706;28;20043;-61
2023/05/07 03:57:02;;;;;;;0.40;0.20;;;22.50;65.40;;;;;;6168058;28;20100;-61
2023/05/07 04:00:05;;;;;;;0.52;0.40;;;22.50;65.40;;;;;;6168001;28;20046;-62
2023/05/07 04:03:10;;;;;;;0.77;0.47;;;22.50;65.40;;;;;;6167700;28;20058;-61
2023/05/07 04:06:12;;;;;;;0.60;0.40;;;22.40;65.40;;;;;;6167468;28;20043;-61
2023/05/07 04:09:17;;;;;;;0.30;0.30;;;22.40;65.60;;;;;;6167440;28;20058;-61
2023/05/07 04:12:24;;;;;;;0.68;0.40;;;22.40;65.40;;;;;;6167771;28;20066;-61
2023/05/07 04:15:26;;;;;;;0.52;0.35;;;22.50;62.60;;;;;;6167538;28;20034;-61
2023/05/07 04:18:28;;;;;;;0.65;0.47;;;22.30;65.40;;;;;;6165784;28;20050;-61
2023/05/07 04:21:29;;;;;;;0.55;0.40;;;22.50;65.40;;;;;;6166307;28;20379;-62
2023/05/07 04:24:33;;;;;;;0.28;0.28;;;21.90;65.20;;;;;;6165814;28;20038;-61
2023/05/07 04:27:37;;;;;;;0.82;0.30;;;22.40;65.30;;;;;;6165237;28;20039;-61
2023/05/07 04:30:41;;;;;;;0.50;0.40;;;22.50;65.30;;;;;;6165547;28;20047;-62
2023/05/07 04:33:43;;;;;;;0.32;0.30;;;22.40;65.40;;;;;;6165686;28;20070;-61
2023/05/07 04:36:48;;;;;;;0.88;0.40;;;22.50;65.50;;;;;;6165589;28;20037;-61
2023/05/07 04:39:49;;;;;;;;;;;22.40;65.50;;;;;;6164874;28;20069;-61
2023/05/07 04:42:52;;;;;;;0.30;0.30;;;22.40;65.70;;;;;;6165442;28;19922;-62
2023/05/07 04:45:55;;;;;;;0.20;0.20;;;22.40;65.40;;;;;;6165733;28;20034;-61
2023/05/07 04:48:59;;;;;;;0.20;0.20;;;22.60;65.60;;;;;;6165317;28;20046;-61
2023/05/07 04:52:01;;;;;;;0.40;0.40;;;22.40;65.70;;;;;;6165401;28;20662;-61
2023/05/07 04:55:03;;;;;;;0.30;0.30;;;22.40;65.70;;;;;;6164722;28;20038;-61
2023/05/07 04:58:10;;;;;;;0.52;0.38;;;22.40;65.70;;;;;;6165216;28;20453;-62
2023/05/07 05:01:13;;;;;;;0.38;0.30;;;22.30;65.60;;;;;;6168661;28;20047;-61
2023/05/07 05:04:18;;;;;;;0.47;0.30;;;22.40;66.00;;;;;;6169728;28;20134;-61
2023/05/07 05:07:19;;;;;;;0.20;0.20;;;22.40;65.90;;;;;;6169672;28;20386;-61
2023/05/07 05:10:21;;;;;;;;;;;22.20;66.30;;;;;;6166009;28;20070;-62
2023/05/07 05:13:27;;;;;;;0.30;0.30;;;22.00;66.00;;;;;;6168319;28;19922;-62
2023/05/07 05:16:29;;;;;;;0.20;0.20;;;22.50;65.90;;;;;;6169368;28;20722;-62
2023/05/07 05:19:31;;;;;;;0.45;0.35;;;22.50;66.00;;;;;;6169401;28;20562;-62
2023/05/07 05:22:36;;;;;;;0.40;0.40;;;22.50;66.20;;;;;;6169156;28;20761;-62
2023/05/07 05:25:39;;;;;;;0.40;0.40;;;22.60;66.10;;;;;;6164041;28;20114;-62
2023/05/07 05:28:41;;;;;;;0.80;0.40;;;22.30;66.20;;;;;;6165440;28;20038;-62
2023/05/07 05:31:43;;;;;;;0.50;0.43;;;22.40;66.10;;;;;;6168377;28;20046;-62
2023/05/07 05:34:45;;;;;;;0.70;0.40;;;22.40;66.30;;;;;;6169425;28;20047;-62
2023/05/07 05:37:47;;;;;;;0.35;0.20;;;22.40;66.30;;;;;;6169067;28;20101;-61
2023/05/07 05:40:53;;;;;;;0.32;0.32;;;22.40;66.40;;;;;;6168159;28;20042;-61
2023/05/07 05:43:58;;;;;;;1.05;0.50;;;22.40;66.50;;;;;;6168646;28;20043;-61
2023/05/07 05:47:00;;;;;;;0.30;0.30;;;22.50;66.40;;;;;;6168307;28;20039;-62
2023/05/07 05:50:06;;;;;;;0.20;0.20;;;22.30;66.30;;;;;;6168494;28;20590;-62
2023/05/07 05:53:07;;;;;;;0.32;0.32;;;22.00;66.00;;;;;;6169006;28;20135;-62
2023/05/07 05:56:09;;;;;;;0.30;0.20;;;22.40;66.50;;;;;;6168864;28;20867;-62
2023/05/07 05:59:13;;;;;;;0.40;0.38;;;22.50;66.50;;;;;;6168516;28;20724;-62
2023/05/07 06:02:15;;;;;;;0.45;0.38;;;22.40;66.40;;;;;;6167682;28;20135;-62
2023/05/07 06:05:17;;;;;;;0.57;0.43;;;22.30;66.50;;;;;;6166289;28;20039;-61
2023/05/07 06:08:19;;;;;;;0.38;0.30;;;22.40;66.50;;;;;;6167265;28;20532;-61
2023/05/07 06:11:21;;;;;;;0.35;0.30;;;21.90;66.20;;;;;;6166023;28;20035;-62
2023/05/07 06:14:23;;;;;;;0.45;0.35;;;22.40;66.50;;;;;;6167635;28;20117;-62
2023/05/07 06:17:25;;;;;;;0.50;0.30;;;22.40;66.30;;;;;;6166448;28;20038;-62
2023/05/07 06:20:27;;;;;;;0.28;0.28;;;22.40;66.30;;;;;;6167026;28;20456;-62
2023/05/07 06:23:28;;;;;;;0.35;0.30;;;22.30;66.50;;;;;;6167453;28;20138;-62
2023/05/07 06:26:34;;;;;;;0.60;0.40;;;22.40;66.50;;;;;;6166959;28;20063;-62
2023/05/07 06:29:36;;;;;;;;;;;22.30;66.50;;;;;;6167546;28;20103;-62
2023/05/07 06:32:47;;;;;;;0.43;0.40;;;22.20;66.50;;;;;;6166882;28;19926;-62
2023/05/07 06:35:52;;;;;;;0.43;0.38;;;22.10;66.40;;;;;;6166739;28;20126;-62
2023/05/07 06:38:55;;;;;;;0.45;0.38;;;22.40;66.60;;;;;;6165964;28;20046;-62
2023/05/07 06:41:57;;;;;;;0.40;0.30;;;22.30;66.70;;;;;;6166572;28;20038;-61
2023/05/07 06:45:03;;;;;;;0.17;0.17;;;22.50;66.70;;;;;;6165378;28;20122;-62
2023/05/07 06:48:06;;;;;;;0.20;0.20;;;22.40;66.60;;;;;;6166996;28;20073;-62
2023/05/07 06:51:16;;;;;;;0.30;0.30;;;22.30;66.80;;;;;;6166036;28;20148;-62
2023/05/07 06:54:18;;;;;;;0.47;0.40;;;22.50;67.00;;;;;;6166625;28;20410;-62
2023/05/07 06:57:21;;;;;;;0.20;0.20;;;22.40;66.90;;;;;;6165232;28;20039;-62
2023/05/07 07:00:23;;;;;;;0.43;0.43;;;22.40;67.00;;;;;;6166595;28;20189;-62
2023/05/07 07:03:28;;;;;;;0.40;0.30;;;22.10;66.70;;;;;;6165176;28;20037;-61
2023/05/07 07:06:31;;;;;;;0.30;0.30;;;22.40;67.00;;;;;;6160564;28;20127;-62
2023/05/07 07:09:34;;;;;;;0.20;0.20;;;22.30;66.80;;;;;;6163337;28;20532;-62
2023/05/07 07:12:38;;;;;;;0.30;0.30;;;22.30;66.90;;;;;;6166180;28;20144;-62
2023/05/07 07:15:41;;;;;;;0.30;0.30;;;22.40;66.90;;;;;;6165762;28;20065;-62
2023/05/07 07:18:43;;;;;;;0.35;0.35;;;22.60;66.90;;;;;;6165315;28;20043;-62
2023/05/07 07:21:45;;;;;;;0.30;0.25;;;22.50;67.10;;;;;;6165197;28;20046;-61
2023/05/07 07:24:47;;;;;;;1.02;0.40;;;22.10;66.80;;;;;;6164662;28;20031;-62
2023/05/07 07:27:52;;;;;;;0.20;0.20;;;22.40;67.00;;;;;;6165581;28;20039;-62
2023/05/07 07:30:55;;;;;;;0.40;0.20;;;22.00;66.90;;;;;;6165426;28;20039;-62
2023/05/07 07:33:57;;;;;;;0.20;0.20;;;22.40;67.00;;;;;;6165733;28;20045;-62
2023/05/07 07:37:05;;;;;;;0.45;0.28;;;22.50;67.10;;;;;;6165774;28;20066;-62
2023/05/07 07:40:08;;;;;;;0.40;0.40;;;22.50;67.30;;;;;;6165708;28;20053;-62
2023/05/07 07:43:11;;;;;;;0.35;0.28;;;22.10;66.90;;;;;;6162436;28;20146;-62
2023/05/07 07:46:13;;;;;;;;;;;22.50;67.30;;;;;;6166181;28;20154;-62
2023/05/07 07:49:17;;;;;;;0.60;0.30;;;22.60;67.70;;;;;;6165367;28;20297;-62
2023/05/07 07:52:19;;;;;;;0.30;0.20;;;22.60;67.30;;;;;;6163977;28;20426;-62
2023/05/07 07:55:23;;;;;;;0.30;0.30;;;22.40;81.90;;;;;;6165468;28;20678;-62
2023/05/07 07:58:29;;;;;;;0.30;0.20;;;22.20;67.60;;;;;;6165373;28;20050;-62
2023/05/07 08:01:31;;;;;;;0.38;0.38;;;22.30;67.80;;;;;;6165702;28;20049;-62
2023/05/07 08:04:35;;;;;;;0.30;0.30;;;21.90;67.20;;;;;;6165270;28;20206;-62
2023/05/07 08:07:39;;;;;;;0.40;0.35;;;22.40;67.80;;;;;;6165286;28;20846;-62
2023/05/07 08:10:41;;;;;;;0.30;0.30;;;22.40;67.80;;;;;;6164877;28;20054;-62
2023/05/07 08:13:50;;;;;;;0.32;0.30;;;22.50;67.80;;;;;;6164987;28;20693;-62
2023/05/07 08:16:53;;;;;;;0.30;0.30;;;22.50;67.30;;;;;;6165086;28;20042;-62
2023/05/07 08:19:55;;;;;;;0.50;0.50;;;22.60;68.10;;;;;;6165227;28;20046;-62
2023/05/07 08:22:57;;;;;;;0.40;0.40;;;22.50;66.00;;;;;;6165121;28;20556;-62
2023/05/07 08:26:01;;;;;;;0.50;0.50;;;22.30;67.90;;;;;;6164746;28;20031;-62
2023/05/07 08:29:05;;;;;;;0.50;0.40;;;22.20;67.50;;;;;;6164981;28;20034;-62
2023/05/07 08:32:10;;;;;;;0.32;0.30;;;22.50;68.00;;;;;;6165145;28;20340;-62
2023/05/07 08:35:11;;;;;;;0.40;0.40;;;22.50;68.00;;;;;;6167611;28;20046;-62
2023/05/07 08:38:13;;;;;;;0.57;0.40;;;22.50;67.90;;;;;;6168401;28;20436;-62
2023/05/07 08:41:16;;;;;;;0.30;0.30;;;22.50;67.40;;;;;;6168314;28;20701;-62
2023/05/07 08:44:26;;;;;;;0.30;0.30;;;22.40;67.70;;;;;;6168617;28;20031;-62
2023/05/07 08:47:34;;;;;;;0.50;0.30;;;22.40;67.60;;;;;;6150820;28;20152;-62
2023/05/07 08:50:38;;;;;;;0.20;0.20;;;22.50;67.50;;;;;;6168943;28;20599;-62
2023/05/07 08:53:42;;;;;;;0.50;0.38;;;22.50;67.40;;;;;;6168888;28;20552;-62
2023/05/07 08:56:46;;;;;;;0.40;0.30;;;22.50;67.40;;;;;;6167502;28;20039;-62
2023/05/07 08:59:49;;;;;;;0.40;0.40;;;22.50;67.50;;;;;;6166535;28;20093;-62
2023/05/07 09:02:53;;;;;;;0.40;0.40;;;22.50;67.40;;;;;;6168320;28;20665;-62
2023/05/07 09:05:55;;;;;;;0.45;0.40;;;22.50;67.00;;;;;;6151159;28;20050;-62
2023/05/07 09:09:01;;;;;;;0.30;0.30;;;22.70;67.30;;;;;;6168311;28;20248;-62
2023/05/07 09:12:05;;;;;;;0.30;0.30;;;22.40;66.90;;;;;;6166797;28;20693;-62
2023/05/07 09:15:10;;;;;;;0.32;0.30;;;22.50;67.00;;;;;;6168057;28;20038;-62
2023/05/07 09:18:13;;;;;;;0.30;0.30;;;22.70;67.00;;;;;;6167023;28;20089;-62
2023/05/07 09:21:20;;;;;;;0.30;0.30;;;22.20;66.70;;;;;;6165477;28;20489;-62
2023/05/07 09:24:24;;;;;;;0.20;0.20;;;22.40;66.60;;;;;;6166622;28;20745;-62
2023/05/07 09:27:26;;;;;;;0.32;0.32;;;22.70;67.00;;;;;;6167897;28;20667;-62
2023/05/07 09:30:30;;;;;;;0.45;0.40;;;22.30;66.50;;;;;;6166336;28;20046;-62
2023/05/07 09:33:34;;;;;;;0.30;0.30;;;22.50;67.00;;;;;;6164865;28;20066;-62
2023/05/07 09:36:38;;;;;;;0.20;0.20;;;22.60;66.50;;;;;;6159737;28;20039;-62
2023/05/07 09:39:46;;;;;;;0.40;0.20;;;22.30;66.40;;;;;;6166922;28;20086;-62
2023/05/07 09:42:50;;;;;;;0.32;0.30;;;22.40;66.10;;;;;;6164089;28;20054;-62
2023/05/07 09:45:53;;;;;;;0.30;0.30;;;22.70;66.40;;;;;;6165348;28;20038;-62
2023/05/07 09:49:00;;;;;;;0.40;0.30;;;22.60;66.30;;;;;;6164807;28;20041;-62
2023/05/07 09:52:05;;;;;;;0.38;0.30;;;22.60;66.00;;;;;;6166062;28;20046;-62
2023/05/07 09:55:12;;;;;;;0.20;0.20;;;22.70;66.00;;;;;;6165368;28;20294;-61
2023/05/07 09:58:16;;;;;;;0.30;0.20;;;22.50;65.70;;;;;;6163858;28;20035;-62
2023/05/07 10:01:21;;;;;;;0.20;0.20;;;22.60;65.80;;;;;;6165892;28;20042;-62
2023/05/07 10:04:25;;;;;;;0.20;0.20;;;22.20;65.50;;;;;;6164476;28;20031;-62
2023/05/07 10:07:27;;;;;;;0.30;0.22;;;22.80;65.80;;;;;;6165758;28;20546;-62
2023/05/07 10:10:33;;;;;;;0.30;0.30;;;22.70;65.80;;;;;;6166003;28;20039;-61
2023/05/07 10:13:37;;;;;;;0.30;0.30;;;22.60;65.70;;;;;;6165059;28;20035;-62
2023/05/07 10:16:41;;;;;;;0.47;0.40;;;22.80;65.70;;;;;;6165206;28;20122;-62
2023/05/07 10:19:50;;;;;;;0.45;0.30;;;22.40;65.30;;;;;;6162575;28;20043;-61
2023/05/07 10:22:56;;;;;;;0.20;0.20;;;22.50;65.20;;;;;;6164407;28;20031;-62
2023/05/07 10:26:06;;;;;;;0.10;0.10;;;22.70;65.10;;;;;;6164617;28;20039;-62
2023/05/07 10:29:17;;;;;;;0.50;0.35;;;22.70;65.00;;;;;;6165947;28;20611;-62
2023/05/07 10:32:35;;;;;;;0.10;0.10;;;22.80;65.10;;;;;;6165784;28;20398;-62
2023/05/07 10:35:41;;;;;;;0.20;0.20;;;22.50;64.70;;;;;;6164866;28;20097;-62
2023/05/07 10:38:43;;;;;;;0.13;0.13;;;22.80;64.90;;;;;;6164704;28;20035;-62
2023/05/07 10:41:47;;;;;;;0.32;0.20;;;22.70;65.20;;;;;;6153419;28;20070;-61
2023/05/07 10:44:49;;;;;;;0.32;0.32;;;22.70;64.70;;;;;;6164949;28;20552;-61
2023/05/07 10:48:13;;;;;;;0.15;0.15;;;22.70;65.20;;;;;;6165871;28;20039;-61
2023/05/07 10:51:38;;;;;;;0.30;0.22;;;22.20;64.50;;;;;;6165368;28;20053;-62
2023/05/07 10:55:21;;;;;;;0.25;0.22;;;22.30;64.40;;;;;;6165482;28;20039;-62
2023/05/07 10:58:36;;;;;;;0.20;0.20;;;22.80;65.10;;;;;;6160912;28;20623;-62
2023/05/07 11:01:52;;;;;;;0.55;0.30;;;22.90;64.70;;;;;;6165935;28;20039;-62
2023/05/07 11:05:21;;;;;;;0.73;0.50;;;22.70;64.20;;;;;;6165177;28;20058;-62
2023/05/07 11:08:54;;;;;;;0.20;0.20;;;22.70;64.10;;;;;;6166565;28;20033;-62
2023/05/07 11:11:58;;;;;;;0.32;0.30;;;22.70;64.10;;;;;;6164274;28;20043;-60
2023/05/07 11:15:09;;;;;;;0.25;0.25;;;22.80;64.30;;;;;;6165217;28;20035;-60
2023/05/07 11:18:16;;;;;;;0.40;0.30;;;22.80;64.10;;;;;;6164476;28;20035;-60
2023/05/07 11:21:34;;;;;;;0.30;0.30;;;22.70;64.00;;;;;;6164274;28;20073;-60
2023/05/07 11:24:46;;;;;;;0.50;0.40;;;22.30;63.70;;;;;;6165587;28;20046;-60
2023/05/07 11:27:49;;;;;;;0.47;0.30;;;22.40;64.00;;;;;;6165484;28;20105;-60
2023/05/07 11:30:51;;;;;;;0.30;0.30;;;22.70;64.10;;;;;;6165391;28;20041;-61
2023/05/07 11:33:55;;;;;;;0.40;0.30;;;22.80;64.00;;;;;;6165177;28;20034;-60
2023/05/07 11:36:59;;;;;;;0.40;0.40;;;22.80;64.00;;;;;;6164472;28;20126;-60
2023/05/07 11:40:13;;;;;;;0.38;0.30;;;22.90;63.90;;;;;;6165507;28;20031;-60
2023/05/07 11:43:15;;;;;;;0.40;0.30;;;22.40;63.20;;;;;;6165216;28;20047;-60
2023/05/07 11:46:17;;;;;;;0.47;0.30;;;22.90;63.80;;;;;;6165301;28;20043;-59
2023/05/07 11:49:19;;;;;;;0.40;0.22;;;22.80;63.40;;;;;;6165188;28;20126;-59
2023/05/07 11:52:24;;;;;;;0.40;0.40;;;23.00;63.60;;;;;;6164769;28;20039;-59
2023/05/07 11:55:26;;;;;;;0.28;0.28;;;22.80;63.20;;;;;;6164250;28;20086;-59
2023/05/07 11:58:28;;;;;;;0.35;0.30;;;22.80;63.20;;;;;;6162705;28;20039;-59
2023/05/07 12:01:30;;;;;;;;;;;22.90;63.30;;;;;;6162321;28;20050;-59
2023/05/07 12:04:31;;;;;;;0.40;0.35;;;23.10;63.50;;;;;;6164547;28;20466;-59
2023/05/07 12:07:33;;;;;;;;;;;22.90;63.10;;;;;;6163309;28;20035;-59
2023/05/07 12:10:41;;;;;;;0.38;0.28;;;23.00;63.20;;;;;;6162327;28;20348;-59
2023/05/07 12:13:43;;;;;;;0.50;0.50;;;22.90;62.80;;;;;;6164151;28;20086;-59
2023/05/07 12:16:45;;;;;;;0.40;0.40;;;23.00;62.60;;;;;;6164300;28;20041;-59
2023/05/07 12:19:48;;;;;;;0.40;0.30;;;23.00;62.20;;;;;;6163883;28;20595;-59
2023/05/07 12:22:51;;;;;;;0.30;0.30;;;22.90;62.10;;;;;;6164475;28;20590;-59
2023/05/07 12:25:53;;;;;;;0.50;0.50;;;22.80;61.80;;;;;;6163733;28;20050;-59
2023/05/07 12:29:01;;;;;;;0.50;0.47;;;22.90;61.90;;;;;;6163905;28;20046;-59
2023/05/07 12:32:02;;;;;;;0.47;0.47;;;23.00;60.10;;;;;;6163190;28;20490;-59
2023/05/07 12:35:07;;;;;;;0.52;0.47;;;23.00;62.00;;;;;;6163951;28;20050;-59
2023/05/07 12:38:13;;;;;;;0.40;0.30;;;22.60;61.50;;;;;;6163729;28;20123;-59
2023/05/07 12:41:16;;;;;;;0.50;0.30;;;23.00;61.60;;;;;;6164471;28;20133;-59
2023/05/07 12:44:17;;;;;;;0.57;0.40;;;23.00;61.50;;;;;;6162971;28;20043;-61
2023/05/07 12:47:21;;;;;;;0.52;0.40;;;22.60;61.50;;;;;;6164205;28;20039;-61
2023/05/07 12:50:23;;;;;;;0.40;0.40;;;23.00;61.40;;;;;;6164022;28;20046;-61
2023/05/07 12:53:26;;;;;;;0.65;0.40;;;23.00;61.40;;;;;;6163828;28;20111;-61
2023/05/07 12:56:31;;;;;;;0.43;0.40;;;23.00;61.20;;;;;;6162432;28;20046;-61
2023/05/07 12:59:33;;;;;;;0.40;0.30;;;22.90;61.10;;;;;;6162378;28;20126;-61
2023/05/07 13:02:39;;;;;;;0.47;0.40;;;23.00;60.90;;;;;;6163241;28;20050;-61
2023/05/07 13:05:41;;;;;;;0.60;0.40;;;23.10;61.00;;;;;;6163361;28;20042;-61
2023/05/07 13:08:43;;;;;;;;;;;23.00;60.90;;;;;;6164437;28;20043;-61
2023/05/07 13:11:45;;;;;;;0.30;0.30;;;23.10;58.90;;;;;;6164073;28;19930;-61
2023/05/07 13:14:46;;;;;;;0.30;0.30;;;23.10;61.00;;;;;;6163673;28;20121;-61
2023/05/07 13:17:48;;;;;;;0.80;0.40;;;23.00;61.30;;;;;;6163886;28;20039;-60
2023/05/07 13:20:53;;;;;;;0.45;0.35;;;23.10;61.20;;;;;;6166434;28;20066;-61
2023/05/07 13:23:54;;;;;;;0.75;0.40;;;23.10;61.20;;;;;;6167907;28;20123;-61
2023/05/07 13:26:56;;;;;;;0.40;0.30;;;23.20;61.30;;;;;;6167929;28;20098;-61
2023/05/07 13:29:58;;;;;;;0.30;0.30;;;23.10;61.20;;;;;;6167768;28;20035;-61
2023/05/07 13:32:59;;;;;;;0.50;0.50;;;23.10;60.90;;;;;;6168079;28;20733;-61
2023/05/07 13:36:02;;;;;;;0.40;0.38;;;23.10;61.10;;;;;;6167336;28;20659;-61
2023/05/07 13:39:03;;;;;;;0.38;0.38;;;22.70;60.80;;;;;;6167561;28;20035;-61
2023/05/07 13:42:05;;;;;;;;;;;22.80;60.70;;;;;;6167052;28;20038;-61
2023/05/07 13:45:09;;;;;;;0.30;0.25;;;23.20;61.20;;;;;;6167267;28;19981;-61
2023/05/07 13:48:11;;;;;;;0.30;0.30;;;23.10;60.60;;;;;;6166295;28;20122;-61
2023/05/07 13:51:13;;;;;;;0.22;0.20;;;23.20;60.60;;;;;;6165939;28;20050;-61
2023/05/07 13:54:15;;;;;;;0.38;0.30;;;23.20;60.30;;;;;;6167113;28;20038;-61
2023/05/07 13:57:17;;;;;;;0.60;0.40;;;23.40;60.20;;;;;;6167411;28;20046;-61
2023/05/07 14:00:19;;;;;;;0.28;0.28;;;23.20;60.20;;;;;;6166344;28;20039;-61
2023/05/07 14:03:21;;;;;;;0.30;0.20;;;23.30;60.10;;;;;;6167055;28;20042;-61
2023/05/07 14:06:22;;;;;;;0.30;0.30;;;23.20;59.90;;;;;;6166900;28;20768;-61
2023/05/07 14:09:25;;;;;;;0.40;0.28;;;22.70;59.50;;;;;;6167107;28;20125;-61
2023/05/07 14:12:27;;;;;;;0.30;0.30;;;23.30;59.70;;;;;;6167032;28;20098;-61
2023/05/07 14:15:28;;;;;;;0.20;0.20;;;23.40;59.60;;;;;;6167257;28;20039;-61
2023/05/07 14:18:30;;;;;;;0.30;0.30;;;23.40;59.60;;;;;;6166997;28;20031;-60
2023/05/07 14:21:31;;;;;;;0.52;0.20;;;23.30;59.20;;;;;;6166461;28;20050;-61
2023/05/07 14:24:32;;;;;;;0.25;0.20;;;22.90;59.10;;;;;;6167435;28;20547;-61
2023/05/07 14:27:40;;;;;;;0.30;0.30;;;23.30;59.20;;;;;;6166725;28;20045;-61
2023/05/07 14:30:42;;;;;;;0.15;0.15;;;22.80;58.70;;;;;;6164613;28;20113;-61
2023/05/07 14:33:43;;;;;;;;;;;23.40;59.00;;;;;;6165483;28;20047;-61
2023/05/07 14:36:45;;;;;;;0.60;0.28;;;23.10;59.10;;;;;;6167159;28;19945;-61
2023/05/07 14:39:46;;;;;;;0.30;0.30;;;23.50;59.10;;;;;;6164020;28;20035;-60
2023/05/07 14:42:52;;;;;;;0.20;0.20;;;23.40;58.90;;;;;;6165947;28;20614;-61
2023/05/07 14:45:53;;;;;;;0.25;0.22;;;23.30;58.60;;;;;;6166347;28;20043;-61
2023/05/07 14:48:56;;;;;;;0.35;0.25;;;23.40;58.70;;;;;;6164745;28;20038;-61
2023/05/07 14:51:59;;;;;;;0.20;0.20;;;23.40;58.50;;;;;;6166895;28;20053;-61
2023/05/07 14:55:01;;;;;;;0.20;0.20;;;23.30;58.20;;;;;;6166566;28;20039;-60
2023/05/07 14:58:03;;;;;;;0.20;0.20;;;23.50;58.00;;;;;;6165824;28;20051;-61
2023/05/07 15:01:05;;;;;;;0.40;0.30;;;23.40;58.10;;;;;;6166273;28;20649;-61
2023/05/07 15:04:06;;;;;;;0.20;0.20;;;23.60;58.30;;;;;;6166606;28;20042;-60
2023/05/07 15:07:08;;;;;;;0.17;0.17;;;23.50;58.20;;;;;;6165978;28;20543;-60
2023/05/07 15:10:09;;;;;;;;;;;23.30;58.10;;;;;;6164607;28;20537;-60
2023/05/07 15:13:12;;;;;;;0.15;0.15;;;23.50;58.50;;;;;;6164606;28;20422;-61
2023/05/07 15:16:18;;;;;;;0.20;0.20;;;23.60;58.20;;;;;;6163587;28;20049;-60
2023/05/07 15:19:21;;;;;;;0.20;0.20;;;23.60;58.10;;;;;;6162221;28;20181;-61
2023/05/07 15:22:23;;;;;;;0.20;0.20;;;23.40;57.90;;;;;;6164865;28;20038;-61
2023/05/07 15:25:24;;;;;;;0.38;0.20;;;23.60;58.20;;;;;;6163821;28;20043;-61
2023/05/07 15:28:27;;;;;;;;;;;23.40;57.90;;;;;;6163712;28;20047;-61
2023/05/07 15:31:31;;;;;;;0.65;0.20;;;23.30;58.00;;;;;;6164284;28;19922;-61
2023/05/07 15:34:36;;;;;;;0.30;0.20;;;23.70;57.80;;;;;;6164180;28;20049;-61
2023/05/07 15:37:37;;;;;;;0.40;0.30;;;23.10;58.10;;;;;;6163404;28;20042;-61
2023/05/07 15:40:41;;;;;;;0.22;0.17;;;23.60;58.30;;;;;;6164439;28;20039;-61
2023/05/07 15:43:49;;;;;;;0.20;0.20;;;23.20;57.40;;;;;;6164256;28;20034;-60
2023/05/07 15:46:50;;;;;;;0.10;0.10;;;23.50;57.20;;;;;;6160320;28;20047;-61
2023/05/07 15:49:52;;;;;;;0.30;0.30;;;23.70;58.10;;;;;;6157817;28;20054;-60
2023/05/07 15:52:54;;;;;;;0.43;0.25;;;23.70;57.30;;;;;;6164044;28;20517;-60
2023/05/07 15:55:55;;;;;;;0.20;0.20;;;23.60;57.10;;;;;;6163062;28;20035;-60
2023/05/07 15:58:57;;;;;;;0.28;0.20;;;23.70;57.00;;;;;;6163748;28;20453;-60
2023/05/07 16:02:00;;;;;;;0.30;0.20;;;23.70;56.90;;;;;;6164812;28;20232;-60